Time;durP1;ratioP1;P1;durP2;ratioP2;P2;SDS_P1;SDS_P2;PMS_P1;PMS_P2;Temp;Humidity;BMP_temperature;BMP_pressure;BME280_temperature;BME280_humidity;BME280_pressure;Samples;Min_cycle;Max_cycle;Signal;HPM_P1;HPM_P2
2023/01/13 00:02:03;;;;;;;1.42;0.30;;;;;;;;;;5030502;28;20064;-56
2023/01/13 00:04:28;;;;;;;0.43;0.10;;;;;;;;;;5039331;28;20509;-56
2023/01/13 00:06:53;;;;;;;2.45;0.40;;;;;;;;;;5031469;28;20018;-56
2023/01/13 00:09:18;;;;;;;1.30;0.30;;;;;;;;;;5031726;28;20064;-56
2023/01/13 00:11:43;;;;;;;1.10;0.25;;;;;;;;;;5032321;28;20486;-56
2023/01/13 00:14:08;;;;;;;0.85;0.30;;;;;;;;;;5031705;28;20025;-56
2023/01/13 00:16:33;;;;;;;0.20;0.10;;;;;;;;;;5031460;28;20033;-57
2023/01/13 00:18:58;;;;;;;1.20;0.30;;;;;;;;;;5034854;28;20021;-56
2023/01/13 00:21:24;;;;;;;1.37;0.40;;;;;;;;;;5030525;28;20025;-55
2023/01/13 00:23:50;;;;;;;0.77;0.20;;;;;;;;;;5039669;28;20482;-56
2023/01/13 00:26:17;;;;;;;0.47;0.20;;;;;;;;;;5031386;28;20104;-55
2023/01/13 00:28:42;;;;;;;;;;;;;;;;;;5027419;28;20037;-56
2023/01/13 00:31:09;;;;;;;0.82;0.20;;;;;;;;;;5029205;28;19913;-55
2023/01/13 00:33:34;;;;;;;0.52;0.20;;;;;;;;;;5027588;28;20025;-55
2023/01/13 00:36:00;;;;;;;1.30;0.30;;;;;;;;;;5025902;28;20055;-55
2023/01/13 00:38:25;;;;;;;0.70;0.20;;;;;;;;;;5030145;28;20049;-55
2023/01/13 00:40:57;;;;;;;0.70;0.30;;;;;;;;;;5027435;28;20491;-56
2023/01/13 00:43:22;;;;;;;0.60;0.25;;;;;;;;;;5030887;28;20113;-56
2023/01/13 00:45:50;;;;;;;1.63;0.23;;;;;;;;;;5015548;28;20112;-55
2023/01/13 00:48:15;;;;;;;3.10;0.20;;;;;;;;;;5028055;28;20098;-54
2023/01/13 00:50:40;;;;;;;0.40;0.20;;;;;;;;;;5026186;28;20021;-56
2023/01/13 00:53:05;;;;;;;2.22;0.28;;;;;;;;;;5025913;28;20025;-56
2023/01/13 00:55:31;;;;;;;0.98;0.22;;;;;;;;;;5028710;28;20099;-56
2023/01/13 00:58:02;;;;;;;0.60;0.20;;;;;;;;;;5029449;28;20064;-56
2023/01/13 01:00:27;;;;;;;1.02;0.25;;;;;;;;;;5024669;28;20112;-55
2023/01/13 01:02:52;;;;;;;2.35;0.57;;;;;;;;;;5028923;28;20097;-56
2023/01/13 01:05:17;;;;;;;0.93;0.20;;;;;;;;;;5028276;28;20033;-55
2023/01/13 01:07:42;;;;;;;0.88;0.20;;;;;;;;;;5027907;28;20493;-56
2023/01/13 01:10:08;;;;;;;1.00;0.40;;;;;;;;;;5029314;28;20144;-55
2023/01/13 01:12:33;;;;;;;0.85;0.30;;;;;;;;;;5027419;28;20400;-56
2023/01/13 01:14:58;;;;;;;0.47;0.20;;;;;;;;;;5030181;28;20029;-54
2023/01/13 01:17:23;;;;;;;0.77;0.30;;;;;;;;;;5028176;28;20510;-56
2023/01/13 01:19:48;;;;;;;2.33;0.50;;;;;;;;;;5026091;28;20025;-56
2023/01/13 01:22:14;;;;;;;1.15;0.40;;;;;;;;;;5025692;28;20550;-55
2023/01/13 01:24:39;;;;;;;1.38;0.30;;;;;;;;;;5026627;28;20032;-55
2023/01/13 01:27:04;;;;;;;0.90;0.30;;;;;;;;;;5027146;28;20049;-56
2023/01/13 01:29:29;;;;;;;0.47;0.20;;;;;;;;;;5027465;28;20034;-56
2023/01/13 01:31:56;;;;;;;2.13;0.30;;;;;;;;;;5025774;28;20026;-56
2023/01/13 01:34:21;;;;;;;1.10;0.30;;;;;;;;;;5028064;28;20039;-56
2023/01/13 01:36:46;;;;;;;0.47;0.20;;;;;;;;;;5027327;28;20108;-56
2023/01/13 01:39:11;;;;;;;0.77;0.30;;;;;;;;;;5029840;28;20060;-56
2023/01/13 01:41:36;;;;;;;0.88;0.30;;;;;;;;;;5022342;28;20014;-56
2023/01/13 01:44:07;;;;;;;2.55;0.30;;;;;;;;;;5028707;28;20487;-56
2023/01/13 01:46:35;;;;;;;1.20;0.35;;;;;;;;;;5028406;28;20014;-55
2023/01/13 01:49:16;;;;;;;1.52;0.30;;;;;;;;;;5026493;28;20068;-56
2023/01/13 01:51:44;;;;;;;0.80;0.30;;;;;;;;;;5024681;28;20037;-57
2023/01/13 01:54:11;;;;;;;1.20;0.30;;;;;;;;;;5026203;28;20017;-57
2023/01/13 01:56:38;;;;;;;0.43;0.20;;;;;;;;;;5028453;28;20378;-56
2023/01/13 01:59:03;;;;;;;0.75;0.20;;;;;;;;;;5026871;28;20536;-56
2023/01/13 02:01:28;;;;;;;1.55;0.30;;;;;;;;;;5026363;28;20022;-55
2023/01/13 02:03:59;;;;;;;0.93;0.30;;;;;;;;;;5028525;28;20394;-55
2023/01/13 02:06:24;;;;;;;1.25;0.30;;;;;;;;;;5019897;28;20336;-56
2023/01/13 02:08:50;;;;;;;1.67;0.30;;;;;;;;;;5020849;28;20026;-56
2023/01/13 02:12:28;;;;;;;0.82;0.25;;;;;;;;;;5027212;28;20309;-56
2023/01/13 02:14:10;;;;;;;0.52;0.30;;;;;;;;;;5028921;28;20028;-56
2023/01/13 02:16:37;;;;;;;0.45;0.15;;;;;;;;;;5026313;28;20021;-56
2023/01/13 02:19:27;;;;;;;1.55;0.25;;;;;;;;;;5022248;28;20480;-55
2023/01/13 02:21:52;;;;;;;;;;;;;;;;;;5024243;28;20048;-56
2023/01/13 02:27:30;;;;;;;0.50;0.20;;;;;;;;;;5029140;28;20024;-57
2023/01/13 02:32:55;;;;;;;1.48;0.20;;;;;;;;;;5022073;28;20079;-56
2023/01/13 02:35:28;;;;;;;1.17;0.20;;;;;;;;;;5023203;28;20096;-56
2023/01/13 02:37:55;;;;;;;2.22;0.20;;;;;;;;;;5029024;28;20668;-57
2023/01/13 02:40:23;;;;;;;0.70;0.20;;;;;;;;;;5031551;28;20029;-55
2023/01/13 02:45:43;;;;;;;1.45;0.28;;;;;;;;;;5031012;28;20838;-55
2023/01/13 02:48:09;;;;;;;0.70;0.20;;;;;;;;;;5032199;28;20032;-55
2023/01/13 02:50:37;;;;;;;0.77;0.20;;;;;;;;;;5024633;28;20014;-55
2023/01/13 02:53:07;;;;;;;0.88;0.30;;;;;;;;;;5028612;28;20493;-54
2023/01/13 02:55:37;;;;;;;0.52;0.20;;;;;;;;;;5021846;28;20017;-55
2023/01/13 02:58:04;;;;;;;1.10;0.15;;;;;;;;;;5029026;28;20018;-56
2023/01/13 03:00:29;;;;;;;;;;;;;;;;;;5032998;28;20041;-55
2023/01/13 03:02:54;;;;;;;0.52;0.17;;;;;;;;;;5029113;28;19948;-56
2023/01/13 03:05:20;;;;;;;0.82;0.20;;;;;;;;;;5030688;28;20013;-56
2023/01/13 03:08:03;;;;;;;0.30;0.10;;;;;;;;;;5031143;28;20029;-56
2023/01/13 03:10:28;;;;;;;;;;;;;;;;;;5040467;28;20077;-56
2023/01/13 03:13:06;;;;;;;0.40;0.17;;;;;;;;;;5038390;28;19909;-55
2023/01/13 03:15:41;;;;;;;1.48;0.30;;;;;;;;;;5030373;28;20090;-56
2023/01/13 03:18:25;;;;;;;0.47;0.10;;;;;;;;;;5025904;28;20029;-56
2023/01/13 03:21:08;;;;;;;1.42;0.17;;;;;;;;;;5029336;28;20053;-55
2023/01/13 03:23:36;;;;;;;0.65;0.25;;;;;;;;;;5030184;28;20394;-56
2023/01/13 03:26:17;;;;;;;2.22;0.22;;;;;;;;;;5029056;28;20573;-57
2023/01/13 03:28:47;;;;;;;1.45;0.20;;;;;;;;;;5032620;28;20044;-55
2023/01/13 03:31:14;;;;;;;1.00;0.15;;;;;;;;;;5030827;28;20009;-56
2023/01/13 03:34:00;;;;;;;1.10;0.25;;;;;;;;;;5023923;28;20475;-56
2023/01/13 03:36:27;;;;;;;0.30;0.10;;;;;;;;;;5032300;28;20129;-56
2023/01/13 03:38:55;;;;;;;0.20;0.10;;;;;;;;;;5026547;28;20026;-56
2023/01/13 03:41:34;;;;;;;0.63;0.13;;;;;;;;;;5030520;28;20060;-57
2023/01/13 03:44:24;;;;;;;0.35;0.10;;;;;;;;;;5019309;28;20040;-57
2023/01/13 03:47:01;;;;;;;0.70;0.17;;;;;;;;;;5025390;28;20320;-56
2023/01/13 03:49:30;;;;;;;1.55;0.20;;;;;;;;;;5029976;28;20432;-58
2023/01/13 03:51:57;;;;;;;0.98;0.20;;;;;;;;;;5030179;28;20017;-55
2023/01/13 03:54:24;;;;;;;1.33;0.30;;;;;;;;;;5031055;28;20029;-57
2023/01/13 03:57:01;;;;;;;0.38;0.10;;;;;;;;;;5023703;28;20056;-56
2023/01/13 03:59:29;;;;;;;1.95;0.28;;;;;;;;;;5028725;28;20099;-56
2023/01/13 04:02:02;;;;;;;0.55;0.10;;;;;;;;;;5020746;28;20423;-57
2023/01/13 04:04:30;;;;;;;1.02;0.20;;;;;;;;;;5029613;28;20036;-57
2023/01/13 04:07:14;;;;;;;0.52;0.10;;;;;;;;;;5022530;28;20045;-59
2023/01/13 04:09:50;;;;;;;0.85;0.20;;;;;;;;;;5022272;28;20040;-57
2023/01/13 04:12:59;;;;;;;0.65;0.10;;;;;;;;;;5028749;28;20055;-55
2023/01/13 04:15:19;;;;;;;1.52;0.10;;;;;;;;;;5026360;28;20041;-57
2023/01/13 04:17:44;;;;;;;0.65;0.10;;;;;;;;;;5029327;28;20592;-57
2023/01/13 04:20:09;;;;;;;1.45;0.10;;;;;;;;;;5039351;28;20028;-55
2023/01/13 04:22:34;;;;;;;0.77;0.20;;;;;;;;;;5030554;28;20067;-55
2023/01/13 04:24:59;;;;;;;0.55;0.17;;;;;;;;;;5037631;28;20017;-57
2023/01/13 04:27:25;;;;;;;0.55;0.10;;;;;;;;;;5028911;28;20517;-56
2023/01/13 04:29:50;;;;;;;0.40;0.10;;;;;;;;;;5029865;28;20049;-56
2023/01/13 04:32:15;;;;;;;1.63;0.30;;;;;;;;;;5028324;28;20033;-55
2023/01/13 04:34:40;;;;;;;0.20;0.10;;;;;;;;;;5029705;28;20648;-55
2023/01/13 04:37:05;;;;;;;0.20;0.05;;;;;;;;;;5030415;28;20032;-55
2023/01/13 04:39:31;;;;;;;1.45;0.10;;;;;;;;;;5030797;28;20041;-54
2023/01/13 04:42:00;;;;;;;0.10;0.10;;;;;;;;;;5021608;28;20029;-56
2023/01/13 04:44:25;;;;;;;2.63;0.30;;;;;;;;;;5028766;28;20029;-56
2023/01/13 04:46:50;;;;;;;0.70;0.20;;;;;;;;;;5028895;28;20372;-56
2023/01/13 04:49:15;;;;;;;1.83;0.43;;;;;;;;;;5023117;28;20033;-56
2023/01/13 04:51:41;;;;;;;0.30;0.10;;;;;;;;;;5026455;28;20028;-56
2023/01/13 04:54:06;;;;;;;1.88;0.30;;;;;;;;;;5028423;28;20589;-56
2023/01/13 04:56:31;;;;;;;0.40;0.20;;;;;;;;;;5024682;28;20053;-56
2023/01/13 04:58:56;;;;;;;0.90;0.20;;;;;;;;;;5030318;28;20029;-56
2023/01/13 05:01:21;;;;;;;1.30;0.20;;;;;;;;;;5028353;28;20057;-55
2023/01/13 05:03:46;;;;;;;0.22;0.10;;;;;;;;;;5035256;28;20491;-54
2023/01/13 05:06:12;;;;;;;0.65;0.10;;;;;;;;;;5026396;28;20028;-56
2023/01/13 05:08:37;;;;;;;0.57;0.10;;;;;;;;;;5029875;28;20045;-56
2023/01/13 05:16:58;;;;;;;0.30;0.10;;;;;;;;;;5025033;28;20017;-56
2023/01/13 05:19:18;;;;;;;0.75;0.20;;;;;;;;;;5028474;28;20048;-56
2023/01/13 05:27:10;;;;;;;;;;;;;;;;;;5025662;28;20152;-55
2023/01/13 05:29:36;;;;;;;0.28;0.10;;;;;;;;;;5029780;28;19917;-55
2023/01/13 05:32:01;;;;;;;0.73;0.10;;;;;;;;;;5025640;28;20026;-55
2023/01/13 05:34:26;;;;;;;0.68;0.20;;;;;;;;;;5023075;28;20057;-56
2023/01/13 05:36:51;;;;;;;1.23;0.20;;;;;;;;;;5023128;28;20455;-56
2023/01/13 05:39:16;;;;;;;0.40;0.20;;;;;;;;;;5024593;28;20025;-55
2023/01/13 05:44:25;;;;;;;;;;;;;;;;;;5027684;28;20068;-54
2023/01/13 05:46:51;;;;;;;1.38;0.40;;;;;;;;;;5018863;28;19944;-56
2023/01/13 05:49:16;;;;;;;0.80;0.30;;;;;;;;;;5023789;28;20118;-55
2023/01/13 05:51:41;;;;;;;0.52;0.17;;;;;;;;;;5015298;28;20032;-56
2023/01/13 05:54:06;;;;;;;0.47;0.10;;;;;;;;;;5022369;28;20362;-55
2023/01/13 05:56:31;;;;;;;0.70;0.10;;;;;;;;;;5024354;28;20037;-58
2023/01/13 05:58:56;;;;;;;0.73;0.30;;;;;;;;;;5025744;28;20125;-59
2023/01/13 06:01:21;;;;;;;1.55;0.28;;;;;;;;;;5020140;28;20041;-58
2023/01/13 06:03:47;;;;;;;1.70;0.30;;;;;;;;;;5019342;28;20037;-61
2023/01/13 06:06:12;;;;;;;0.95;0.32;;;;;;;;;;5017226;28;20438;-57
2023/01/13 06:08:37;;;;;;;1.08;0.20;;;;;;;;;;5024191;28;20454;-59
2023/01/13 06:11:02;;;;;;;1.10;0.10;;;;;;;;;;5015935;28;20034;-57
2023/01/13 06:13:27;;;;;;;0.57;0.20;;;;;;;;;;5017180;28;20026;-59
2023/01/13 06:15:56;;;;;;;1.87;0.30;;;;;;;;;;5019806;28;20021;-57
2023/01/13 06:18:21;;;;;;;0.75;0.20;;;;;;;;;;5023363;28;20083;-56
2023/01/13 06:20:46;;;;;;;1.83;0.25;;;;;;;;;;5026454;28;20403;-58
2023/01/13 06:23:11;;;;;;;2.80;0.40;;;;;;;;;;5027227;28;20029;-56
2023/01/13 06:25:50;;;;;;;1.77;0.40;;;;;;;;;;5028623;28;20037;-58
2023/01/13 06:28:15;;;;;;;1.60;0.60;;;;;;;;;;5029947;28;20039;-56
2023/01/13 06:30:43;;;;;;;1.23;0.40;;;;;;;;;;5029579;28;20029;-59
2023/01/13 06:33:11;;;;;;;1.83;0.50;;;;;;;;;;5027694;28;20037;-57
2023/01/13 06:35:38;;;;;;;3.10;0.60;;;;;;;;;;5043300;28;20029;-56
2023/01/13 06:38:03;;;;;;;;;;;;;;;;;;5050280;28;20490;-57
2023/01/13 06:40:28;;;;;;;2.65;0.75;;;;;;;;;;5049491;28;20397;-57
2023/01/13 06:45:38;;;;;;;2.85;0.80;;;;;;;;;;5025978;28;20063;-57
2023/01/13 06:48:03;;;;;;;3.08;0.75;;;;;;;;;;5029496;28;20064;-55
2023/01/13 06:50:29;;;;;;;3.78;0.80;;;;;;;;;;5030162;28;20013;-56
2023/01/13 06:52:54;;;;;;;1.73;0.50;;;;;;;;;;5028562;28;20081;-52
2023/01/13 06:55:19;;;;;;;2.47;0.50;;;;;;;;;;5028335;28;20155;-54
2023/01/13 06:57:48;;;;;;;1.97;0.40;;;;;;;;;;5024552;28;20109;-55
2023/01/13 07:00:14;;;;;;;1.92;0.50;;;;;;;;;;5024289;28;20104;-60
2023/01/13 07:02:39;;;;;;;1.20;0.20;;;;;;;;;;5021789;28;20502;-59
2023/01/13 07:05:05;;;;;;;1.60;0.30;;;;;;;;;;5020125;28;20017;-60
2023/01/13 07:07:31;;;;;;;0.63;0.20;;;;;;;;;;5024288;28;20044;-57
2023/01/13 07:09:57;;;;;;;0.75;0.17;;;;;;;;;;5029209;28;20058;-57
2023/01/13 07:12:22;;;;;;;2.67;0.30;;;;;;;;;;5033195;28;20017;-56
2023/01/13 07:17:31;;;;;;;;;;;;;;;;;;5027065;28;20024;-55
2023/01/13 07:19:57;;;;;;;0.47;0.20;;;;;;;;;;5029078;28;20350;-58
2023/01/13 07:22:23;;;;;;;0.30;0.08;;;;;;;;;;5031878;28;20115;-57
2023/01/13 07:24:49;;;;;;;1.08;0.20;;;;;;;;;;5032706;28;20083;-58
2023/01/13 07:27:14;;;;;;;0.70;0.10;;;;;;;;;;5027521;28;20025;-55
2023/01/13 07:29:39;;;;;;;0.45;0.13;;;;;;;;;;5024860;28;20028;-55
2023/01/13 07:32:05;;;;;;;2.33;0.10;;;;;;;;;;5029638;28;20019;-58
2023/01/13 07:34:30;;;;;;;2.50;0.40;;;;;;;;;;5027995;28;20032;-56
2023/01/13 07:36:55;;;;;;;1.40;0.10;;;;;;;;;;5032332;28;20010;-56
2023/01/13 07:39:21;;;;;;;0.85;0.25;;;;;;;;;;5029568;28;20041;-57
2023/01/13 07:44:30;;;;;;;;;;;;;;;;;;5016751;28;20098;-56
2023/01/13 07:46:55;;;;;;;0.83;0.20;;;;;;;;;;5028774;28;20366;-57
2023/01/13 07:49:20;;;;;;;0.22;0.10;;;;;;;;;;5032010;28;20034;-55
2023/01/13 07:51:45;;;;;;;0.50;0.13;;;;;;;;;;5025122;28;20049;-55
2023/01/13 07:54:10;;;;;;;0.73;0.20;;;;;;;;;;5021148;28;20033;-57
2023/01/13 07:56:35;;;;;;;0.22;0.10;;;;;;;;;;5030153;28;20100;-60
2023/01/13 07:59:01;;;;;;;0.90;0.30;;;;;;;;;;5032499;28;20028;-56
2023/01/13 08:01:26;;;;;;;0.37;0.10;;;;;;;;;;5029671;28;20545;-57
2023/01/13 08:03:52;;;;;;;0.82;0.30;;;;;;;;;;5027136;28;20064;-57
2023/01/13 08:06:17;;;;;;;1.27;0.20;;;;;;;;;;5022242;28;20048;-55
2023/01/13 08:08:42;;;;;;;0.50;0.20;;;;;;;;;;5021901;28;20087;-59
2023/01/13 08:11:07;;;;;;;0.40;0.10;;;;;;;;;;5030151;28;20075;-56
2023/01/13 08:13:33;;;;;;;1.17;0.28;;;;;;;;;;5023714;28;20037;-58
2023/01/13 08:16:00;;;;;;;0.98;0.20;;;;;;;;;;5026518;28;20021;-56
2023/01/13 08:18:25;;;;;;;1.67;0.30;;;;;;;;;;5020967;28;20026;-56
2023/01/13 08:20:53;;;;;;;0.73;0.20;;;;;;;;;;5030956;28;20032;-57
2023/01/13 08:23:19;;;;;;;0.32;0.03;;;;;;;;;;5031878;28;20147;-57
2023/01/13 08:25:45;;;;;;;1.30;0.30;;;;;;;;;;5036366;28;20105;-56
2023/01/13 08:28:10;;;;;;;0.80;0.20;;;;;;;;;;5034814;28;20060;-55
2023/01/13 08:30:35;;;;;;;0.80;0.20;;;;;;;;;;5030628;28;20520;-57
2023/01/13 08:33:00;;;;;;;0.77;0.30;;;;;;;;;;5030758;28;20465;-58
2023/01/13 08:35:26;;;;;;;1.20;0.10;;;;;;;;;;5039210;28;20113;-57
2023/01/13 08:37:51;;;;;;;1.27;0.20;;;;;;;;;;5031549;28;20021;-60
2023/01/13 08:40:17;;;;;;;0.52;0.13;;;;;;;;;;5031380;28;20021;-57
2023/01/13 08:42:42;;;;;;;0.30;0.10;;;;;;;;;;5031791;28;20053;-57
2023/01/13 08:45:08;;;;;;;0.60;0.10;;;;;;;;;;5031313;28;20052;-59
2023/01/13 08:47:33;;;;;;;0.93;0.20;;;;;;;;;;5031184;28;20018;-58
2023/01/13 08:49:58;;;;;;;0.85;0.20;;;;;;;;;;5030380;28;20045;-59
2023/01/13 08:52:23;;;;;;;0.82;0.20;;;;;;;;;;5039147;28;20666;-56
2023/01/13 08:54:48;;;;;;;1.05;0.13;;;;;;;;;;5031312;28;20026;-58
2023/01/13 08:57:14;;;;;;;0.83;0.20;;;;;;;;;;5031470;28;20033;-56
2023/01/13 08:59:40;;;;;;;0.95;0.30;;;;;;;;;;5031422;28;20021;-57
2023/01/13 09:02:11;;;;;;;0.57;0.20;;;;;;;;;;5031491;28;20018;-60
2023/01/13 09:04:36;;;;;;;0.28;0.00;;;;;;;;;;5034494;28;20100;-57
2023/01/13 09:07:01;;;;;;;0.43;0.10;;;;;;;;;;5034747;28;20076;-60
2023/01/13 09:09:26;;;;;;;1.03;0.10;;;;;;;;;;5031256;28;20091;-57
2023/01/13 09:14:37;;;;;;;0.20;0.10;;;;;;;;;;5031304;28;20087;-59
2023/01/13 09:17:02;;;;;;;1.25;0.10;;;;;;;;;;5030499;28;20058;-58
2023/01/13 09:19:28;;;;;;;0.30;0.10;;;;;;;;;;5029918;28;20017;-56
2023/01/13 09:21:53;;;;;;;0.63;0.20;;;;;;;;;;5037882;28;20048;-58
2023/01/13 09:24:19;;;;;;;0.82;0.10;;;;;;;;;;5052137;28;20025;-59
2023/01/13 09:26:44;;;;;;;1.85;0.10;;;;;;;;;;5050764;28;20021;-58
2023/01/13 09:29:09;;;;;;;1.33;0.20;;;;;;;;;;5050826;28;20056;-57
2023/01/13 09:31:34;;;;;;;0.82;0.22;;;;;;;;;;5032940;28;20025;-59
2023/01/13 09:36:44;;;;;;;0.10;0.00;;;;;;;;;;5029435;28;20079;-59
2023/01/13 09:39:09;;;;;;;0.40;0.10;;;;;;;;;;5036633;28;20497;-56
2023/01/13 09:44:26;;;;;;;0.77;0.20;;;;;;;;;;5038210;28;20033;-58
2023/01/13 09:46:59;;;;;;;0.80;0.30;;;;;;;;;;5030192;28;20048;-56
2023/01/13 09:49:24;;;;;;;;;;;;;;;;;;5031166;28;20032;-56
2023/01/13 09:51:52;;;;;;;1.90;0.20;;;;;;;;;;5030437;28;19905;-57
2023/01/13 09:54:24;;;;;;;1.42;0.22;;;;;;;;;;5030147;28;20104;-58
2023/01/13 09:56:50;;;;;;;1.58;0.20;;;;;;;;;;5030256;28;20021;-57
2023/01/13 09:59:15;;;;;;;1.70;0.20;;;;;;;;;;5038301;28;20032;-59
2023/01/13 10:01:47;;;;;;;1.35;0.40;;;;;;;;;;5034360;28;20013;-58
2023/01/13 10:04:13;;;;;;;0.52;0.10;;;;;;;;;;5032524;28;20052;-57
2023/01/13 10:06:41;;;;;;;1.65;0.30;;;;;;;;;;5031022;28;20018;-57
2023/01/13 10:09:08;;;;;;;2.17;0.40;;;;;;;;;;5032312;28;20029;-56
2023/01/13 10:14:27;;;;;;;2.08;0.40;;;;;;;;;;5032092;28;20039;-58
2023/01/13 10:17:10;;;;;;;2.40;0.32;;;;;;;;;;5038678;28;20039;-56
2023/01/13 10:19:48;;;;;;;1.95;0.30;;;;;;;;;;5050668;28;20024;-56
2023/01/13 10:22:32;;;;;;;1.42;0.32;;;;;;;;;;5049766;28;20021;-58
2023/01/13 10:25:07;;;;;;;2.15;0.30;;;;;;;;;;5049671;28;20017;-56
2023/01/13 10:27:33;;;;;;;1.30;0.30;;;;;;;;;;5049940;28;20021;-56
2023/01/13 10:30:09;;;;;;;3.60;0.68;;;;;;;;;;5035052;28;20644;-57
2023/01/13 10:32:34;;;;;;;1.95;0.30;;;;;;;;;;5026209;28;20409;-57
2023/01/13 10:35:00;;;;;;;3.05;0.38;;;;;;;;;;5049367;28;20090;-54
2023/01/13 10:37:26;;;;;;;1.33;0.40;;;;;;;;;;5049732;28;20025;-55
2023/01/13 10:39:56;;;;;;;3.78;0.38;;;;;;;;;;5049907;28;20025;-56
2023/01/13 10:42:22;;;;;;;2.03;0.47;;;;;;;;;;5050359;28;20024;-58
2023/01/13 10:44:49;;;;;;;2.13;0.50;;;;;;;;;;5040381;28;20060;-57
2023/01/13 10:47:19;;;;;;;1.52;0.47;;;;;;;;;;5037807;28;20854;-55
2023/01/13 10:49:57;;;;;;;3.28;0.60;;;;;;;;;;5029809;28;20037;-57
2023/01/13 10:52:24;;;;;;;2.25;0.50;;;;;;;;;;5030053;28;20032;-56
2023/01/13 10:54:52;;;;;;;1.20;0.40;;;;;;;;;;5032893;28;20466;-59
2023/01/13 10:57:17;;;;;;;0.93;0.20;;;;;;;;;;5032920;28;20033;-56
2023/01/13 10:59:42;;;;;;;1.20;0.10;;;;;;;;;;5032667;28;20025;-59
2023/01/13 11:02:07;;;;;;;2.10;0.40;;;;;;;;;;5050673;28;20582;-57
2023/01/13 11:04:37;;;;;;;1.15;0.20;;;;;;;;;;5054166;28;20541;-55
2023/01/13 11:07:03;;;;;;;1.27;0.20;;;;;;;;;;5032784;28;20024;-57
2023/01/13 11:09:29;;;;;;;1.83;0.30;;;;;;;;;;5045336;28;20033;-55
2023/01/13 11:11:55;;;;;;;1.67;0.30;;;;;;;;;;5053707;28;20850;-56
2023/01/13 11:14:40;;;;;;;1.45;0.20;;;;;;;;;;5053823;28;20021;-56
2023/01/13 11:17:08;;;;;;;3.78;0.60;;;;;;;;;;5053809;28;20116;-57
2023/01/13 11:19:35;;;;;;;2.00;0.32;;;;;;;;;;5053730;28;20036;-57
2023/01/13 11:22:09;;;;;;;2.30;0.35;;;;;;;;;;5035666;28;20060;-58
2023/01/13 11:24:41;;;;;;;3.40;0.40;;;;;;;;;;5013812;28;20026;-61
2023/01/13 11:27:25;;;;;;;2.20;0.35;;;;;;;;;;5013510;28;20379;-56
2023/01/13 11:30:09;;;;;;;1.90;0.40;;;;;;;;;;5033080;28;20043;-55
2023/01/13 11:32:53;;;;;;;1.20;0.40;;;;;;;;;;5036158;28;20024;-60
2023/01/13 11:35:20;;;;;;;2.55;0.40;;;;;;;;;;5038717;28;20025;-57
2023/01/13 11:37:49;;;;;;;2.28;0.30;;;;;;;;;;5033223;28;20025;-59
2023/01/13 11:40:20;;;;;;;1.33;0.20;;;;;;;;;;5032972;28;20021;-59
2023/01/13 11:42:49;;;;;;;3.28;0.40;;;;;;;;;;5032916;28;20021;-56
2023/01/13 11:45:26;;;;;;;0.98;0.20;;;;;;;;;;5031107;28;20075;-61
2023/01/13 11:47:53;;;;;;;3.08;0.32;;;;;;;;;;5041519;28;20453;-56
2023/01/13 11:50:27;;;;;;;2.35;0.43;;;;;;;;;;5034828;28;20037;-55
2023/01/13 11:53:17;;;;;;;1.38;0.40;;;;;;;;;;5033237;28;20018;-55
2023/01/13 11:55:54;;;;;;;1.17;0.20;;;;;;;;;;5032657;28;20429;-55
2023/01/13 11:58:45;;;;;;;1.40;0.22;;;;;;;;;;5033450;28;20023;-56
2023/01/13 12:01:16;;;;;;;0.90;0.20;;;;;;;;;;5032056;28;20052;-56
2023/01/13 12:03:47;;;;;;;1.13;0.25;;;;;;;;;;5052421;28;20382;-55
2023/01/13 12:06:21;;;;;;;0.88;0.20;;;;;;;;;;5052138;28;20025;-57
2023/01/13 12:08:49;;;;;;;1.45;0.30;;;;;;;;;;5052378;28;20083;-58
2023/01/13 12:11:14;;;;;;;2.47;0.30;;;;;;;;;;5052291;28;20028;-56
2023/01/13 12:13:48;;;;;;;2.25;0.38;;;;;;;;;;5052553;28;20058;-60
2023/01/13 12:16:19;;;;;;;2.53;0.40;;;;;;;;;;5039709;28;20013;-58
2023/01/13 12:18:47;;;;;;;1.55;0.32;;;;;;;;;;5045654;28;20103;-57
2023/01/13 12:21:19;;;;;;;1.90;0.30;;;;;;;;;;5051860;28;20381;-56
2023/01/13 12:24:03;;;;;;;2.72;0.50;;;;;;;;;;5051935;28;20029;-55
2023/01/13 12:26:30;;;;;;;2.58;0.68;;;;;;;;;;5047176;28;20021;-54
2023/01/13 12:28:59;;;;;;;1.92;0.40;;;;;;;;;;5032019;28;20029;-57
2023/01/13 12:31:25;;;;;;;2.17;0.50;;;;;;;;;;5029659;28;20564;-57
2023/01/13 12:34:02;;;;;;;1.50;0.32;;;;;;;;;;5037797;28;20387;-56
2023/01/13 12:36:45;;;;;;;2.05;0.40;;;;;;;;;;5051403;28;20104;-56
2023/01/13 12:39:13;;;;;;;1.75;0.50;;;;;;;;;;5051834;28;20025;-58
2023/01/13 12:44:32;;;;;;;2.58;0.40;;;;;;;;;;5038858;28;20101;-57
2023/01/13 12:46:57;;;;;;;1.67;0.33;;;;;;;;;;5039320;28;20029;-56
2023/01/13 12:49:27;;;;;;;2.90;0.43;;;;;;;;;;5031516;28;20174;-58
2023/01/13 12:51:55;;;;;;;2.22;0.30;;;;;;;;;;5029400;28;20355;-57
2023/01/13 12:54:29;;;;;;;1.55;0.32;;;;;;;;;;5038786;28;20025;-57
2023/01/13 12:56:55;;;;;;;2.35;0.50;;;;;;;;;;5030981;28;20048;-62
2023/01/13 12:59:20;;;;;;;1.80;0.43;;;;;;;;;;5031388;28;20424;-55
2023/01/13 13:02:05;;;;;;;1.33;0.23;;;;;;;;;;5032125;28;20024;-55
2023/01/13 13:04:41;;;;;;;2.70;0.30;;;;;;;;;;4990034;28;20037;-59
2023/01/13 13:07:08;;;;;;;2.30;0.50;;;;;;;;;;5037798;28;20031;-57
2023/01/13 13:09:33;;;;;;;;;;;;;;;;;;5031528;28;20076;-56
2023/01/13 13:15:03;;;;;;;2.67;0.50;;;;;;;;;;5030624;28;20076;-56
2023/01/13 13:17:28;;;;;;;2.15;0.28;;;;;;;;;;5030207;28;20021;-56
2023/01/13 13:19:57;;;;;;;2.20;0.40;;;;;;;;;;5030806;28;20018;-56
2023/01/13 13:22:25;;;;;;;2.55;0.50;;;;;;;;;;5029866;28;20033;-56
2023/01/13 13:24:50;;;;;;;1.80;0.40;;;;;;;;;;5033149;28;20033;-57
2023/01/13 13:27:16;;;;;;;1.20;0.30;;;;;;;;;;5048200;28;20021;-54
2023/01/13 13:29:45;;;;;;;1.92;0.32;;;;;;;;;;5050598;28;20036;-57
2023/01/13 13:32:31;;;;;;;3.20;0.40;;;;;;;;;;5050608;28;20052;-57
2023/01/13 13:35:14;;;;;;;2.50;0.35;;;;;;;;;;5049368;28;20112;-55
2023/01/13 13:49:05;;;;;;;0.90;0.28;;;;;;;;;;5030423;28;20075;-56
2023/01/13 13:51:36;;;;;;;1.63;0.30;;;;;;;;;;5030635;28;20022;-58
2023/01/13 13:54:01;;;;;;;2.08;0.40;;;;;;;;;;5029029;28;20038;-59
2023/01/13 13:56:27;;;;;;;3.70;0.60;;;;;;;;;;5038015;28;20094;-58
2023/01/13 13:58:53;;;;;;;1.30;0.40;;;;;;;;;;5030380;28;20028;-56
2023/01/13 14:01:28;;;;;;;1.95;0.60;;;;;;;;;;5030239;28;20025;-55
2023/01/13 14:04:02;;;;;;;0.68;0.20;;;;;;;;;;5030201;28;20155;-57
2023/01/13 14:06:28;;;;;;;1.00;0.20;;;;;;;;;;5030135;28;20021;-57
2023/01/13 14:08:53;;;;;;;1.58;0.40;;;;;;;;;;5035615;28;20098;-59
2023/01/13 14:11:26;;;;;;;2.00;0.50;;;;;;;;;;5031692;28;20566;-58
2023/01/13 14:14:04;;;;;;;2.42;0.47;;;;;;;;;;5030315;28;20018;-58
2023/01/13 14:16:30;;;;;;;2.60;0.30;;;;;;;;;;5030267;28;20029;-56
2023/01/13 14:18:55;;;;;;;2.83;0.50;;;;;;;;;;5025554;28;20022;-55
2023/01/13 14:21:25;;;;;;;2.85;0.60;;;;;;;;;;5036825;28;20036;-56
2023/01/13 14:23:52;;;;;;;2.65;0.70;;;;;;;;;;5020593;28;20029;-57
2023/01/13 14:26:22;;;;;;;2.63;0.50;;;;;;;;;;5036567;28;20052;-57
2023/01/13 14:28:47;;;;;;;2.30;0.60;;;;;;;;;;5034093;28;20056;-56
2023/01/13 14:31:13;;;;;;;3.50;0.40;;;;;;;;;;5033873;28;20483;-55
2023/01/13 14:33:38;;;;;;;1.70;0.50;;;;;;;;;;5033327;28;20104;-58
2023/01/13 14:36:03;;;;;;;1.95;0.40;;;;;;;;;;5033672;28;20108;-55
2023/01/13 14:38:28;;;;;;;3.30;0.60;;;;;;;;;;5033807;28;20115;-57
2023/01/13 14:40:53;;;;;;;3.22;0.57;;;;;;;;;;5031599;28;20022;-56
2023/01/13 14:43:21;;;;;;;2.60;0.60;;;;;;;;;;5031598;28;20097;-57
2023/01/13 14:45:57;;;;;;;3.53;0.60;;;;;;;;;;5039777;28;20039;-58
2023/01/13 14:48:25;;;;;;;2.83;0.50;;;;;;;;;;5041468;28;20028;-55
2023/01/13 14:50:51;;;;;;;1.70;0.32;;;;;;;;;;5032262;28;20036;-56
2023/01/13 14:53:26;;;;;;;2.10;0.50;;;;;;;;;;5051355;28;20017;-56
2023/01/13 14:55:51;;;;;;;2.20;0.35;;;;;;;;;;5046603;28;20108;-56
2023/01/13 14:58:27;;;;;;;2.72;0.50;;;;;;;;;;5041382;28;20112;-57
2023/01/13 15:01:12;;;;;;;2.75;0.50;;;;;;;;;;5033615;28;20116;-58
2023/01/13 15:03:41;;;;;;;1.63;0.45;;;;;;;;;;5030444;28;20441;-56
2023/01/13 15:06:20;;;;;;;1.35;0.32;;;;;;;;;;5045420;28;20099;-59
2023/01/13 15:08:45;;;;;;;2.45;0.40;;;;;;;;;;5032575;28;20037;-56
2023/01/13 15:11:18;;;;;;;2.17;0.40;;;;;;;;;;5032708;28;20087;-57
2023/01/13 15:13:45;;;;;;;1.77;0.47;;;;;;;;;;5027582;28;20470;-56
2023/01/13 15:16:13;;;;;;;2.53;0.40;;;;;;;;;;5034159;28;20025;-57
2023/01/13 15:18:40;;;;;;;3.42;0.60;;;;;;;;;;5032160;28;20017;-57
2023/01/13 15:21:05;;;;;;;2.28;0.43;;;;;;;;;;5030764;28;20108;-59
2023/01/13 15:23:30;;;;;;;1.60;0.40;;;;;;;;;;5034839;28;20116;-56
2023/01/13 15:25:58;;;;;;;0.98;0.40;;;;;;;;;;5040972;28;20033;-55
2023/01/13 15:28:24;;;;;;;2.33;0.35;;;;;;;;;;5031402;28;20071;-55
2023/01/13 15:30:50;;;;;;;0.90;0.30;;;;;;;;;;5030225;28;20112;-58
2023/01/13 15:33:16;;;;;;;2.03;0.50;;;;;;;;;;5038887;28;20059;-57
2023/01/13 15:35:43;;;;;;;2.60;0.60;;;;;;;;;;5031711;28;20030;-57
2023/01/13 15:38:10;;;;;;;2.22;0.50;;;;;;;;;;5046452;28;20016;-57
2023/01/13 15:40:35;;;;;;;1.55;0.40;;;;;;;;;;5035973;28;20025;-60
2023/01/13 15:48:29;;;;;;;;;;;;;;;;;;5013747;28;20092;-58
2023/01/13 15:50:54;;;;;;;1.83;0.40;;;;;;;;;;5031055;28;19971;-57
2023/01/13 15:53:19;;;;;;;3.50;0.70;;;;;;;;;;5032340;28;20025;-58
2023/01/13 15:55:46;;;;;;;3.00;0.80;;;;;;;;;;5032322;28;20108;-55
2023/01/13 15:58:12;;;;;;;3.75;0.80;;;;;;;;;;5030858;28;20061;-59